Time;durP1;ratioP1;P1;durP2;ratioP2;P2;SDS_P1;SDS_P2;PMS_P1;PMS_P2;Temp;Humidity;BMP_temperature;BMP_pressure;BME280_temperature;BME280_humidity;BME280_pressure;Samples;Min_cycle;Max_cycle;Signal;HPM_P1;HPM_P2
2023/06/18 00:00:43;;;;;;;7.18;6.47;;;17.80;99.90;;;17.34;100.00;100707.00;4185066;28;20040;-76
2023/06/18 00:02:44;;;;;;;10.23;7.57;;;17.80;99.90;;;17.35;100.00;100713.94;4184831;28;20041;-75
2023/06/18 00:04:45;;;;;;;7.55;6.82;;;17.80;99.90;;;17.33;100.00;100705.34;4183485;28;20028;-76
2023/06/18 00:06:46;;;;;;;10.05;6.22;;;17.80;99.90;;;17.15;100.00;100670.41;4167324;28;20029;-76
2023/06/18 00:08:48;;;;;;;12.50;6.10;;;17.80;99.90;;;17.26;100.00;100701.84;4184882;28;20032;-76
2023/06/18 00:10:49;;;;;;;8.63;6.15;;;17.80;99.90;;;17.17;100.00;100688.91;4184741;28;20029;-76
2023/06/18 00:12:50;;;;;;;9.13;6.95;;;17.70;99.90;;;17.20;100.00;100696.50;4167174;28;20033;-75
2023/06/18 00:14:51;;;;;;;8.43;7.50;;;17.70;99.90;;;17.18;100.00;100704.66;4167048;28;20053;-76
2023/06/18 00:16:52;;;;;;;8.50;7.60;;;17.70;99.90;;;17.09;100.00;100685.38;4167208;28;20504;-76
2023/06/18 00:18:53;;;;;;;9.43;7.10;;;17.60;99.90;;;17.05;100.00;100686.00;4166774;28;20025;-75
2023/06/18 00:20:54;;;;;;;7.75;6.95;;;17.60;99.90;;;17.07;100.00;100689.25;4167230;28;20536;-75
2023/06/18 00:22:54;;;;;;;8.60;7.60;;;17.60;99.90;;;17.00;100.00;100683.06;4167900;28;20124;-76
2023/06/18 00:24:55;;;;;;;8.52;5.85;;;17.60;99.90;;;17.03;100.00;100694.16;4188073;28;20025;-76
2023/06/18 00:26:56;;;;;;;7.43;6.68;;;17.60;99.90;;;17.03;100.00;100688.84;4187911;28;20602;-76
2023/06/18 00:28:57;;;;;;;8.10;6.68;;;17.50;99.90;;;16.95;100.00;100688.19;4170497;28;20116;-76
2023/06/18 00:30:58;;;;;;;5.93;5.32;;;17.50;99.90;;;16.96;100.00;100696.00;4186793;28;20427;-76
2023/06/18 00:33:00;;;;;;;8.45;6.07;;;17.50;99.90;;;16.84;100.00;100686.91;4187766;28;20029;-76
2023/06/18 00:35:00;;;;;;;8.55;7.05;;;17.40;99.90;;;16.75;100.00;100680.13;4164743;28;20120;-76
2023/06/18 00:37:02;;;;;;;7.75;6.40;;;17.30;99.90;;;16.69;100.00;100674.75;4188059;28;20028;-76
2023/06/18 00:39:04;;;;;;;7.32;6.63;;;17.30;99.90;;;16.71;100.00;100688.69;4170074;28;20085;-75
2023/06/18 00:41:05;;;;;;;7.70;6.90;;;17.20;99.90;;;16.62;100.00;100679.22;4187839;28;20123;-76
2023/06/18 00:43:06;;;;;;;8.40;6.72;;;17.20;99.90;;;16.67;100.00;100687.41;4170116;28;20025;-76
2023/06/18 00:45:09;;;;;;;6.95;6.25;;;17.20;99.90;;;16.56;100.00;100675.50;4170057;28;20025;-76
2023/06/18 00:47:12;;;;;;;6.22;5.13;;;17.10;99.90;;;16.52;100.00;100685.69;4187577;28;20057;-76
2023/06/18 00:49:18;;;;;;;5.63;4.93;;;17.10;99.90;;;16.59;100.00;100691.06;4187370;28;20056;-76
2023/06/18 00:51:21;;;;;;;7.20;6.47;;;17.10;99.90;;;16.58;100.00;100695.56;4170147;28;20127;-76
2023/06/18 00:53:22;;;;;;;7.07;6.30;;;17.10;99.90;;;16.46;100.00;100667.00;4169670;28;20444;-76
2023/06/18 00:55:23;;;;;;;7.60;6.65;;;17.10;99.90;;;16.52;100.00;100685.69;4169828;28;20025;-76
2023/06/18 00:57:25;;;;;;;8.60;6.10;;;17.00;99.90;;;16.59;100.00;100681.25;4169916;28;20013;-76
2023/06/18 00:59:27;;;;;;;7.25;6.55;;;17.10;99.90;;;16.67;100.00;100688.25;4169346;28;20131;-76
2023/06/18 01:01:28;;;;;;;7.75;6.45;;;17.10;99.90;;;16.70;100.00;100684.38;4169953;28;20057;-76
2023/06/18 01:03:32;;;;;;;6.93;6.20;;;17.10;99.90;;;16.73;100.00;100690.13;4186955;28;20021;-76
2023/06/18 01:05:34;;;;;;;6.97;6.28;;;17.20;99.90;;;16.72;100.00;100685.84;4202635;28;20071;-76
2023/06/18 01:07:39;;;;;;;9.60;7.93;;;17.20;99.90;;;16.64;100.00;100670.00;4185864;28;20089;-76
2023/06/18 01:09:41;;;;;;;7.78;6.20;;;17.20;99.90;;;16.78;100.00;100684.22;4182422;28;20029;-76
2023/06/18 01:11:42;;;;;;;7.38;6.18;;;17.20;99.90;;;16.79;100.00;100684.00;4179098;28;20047;-76
2023/06/18 01:13:43;;;;;;;6.75;5.38;;;17.30;99.90;;;16.67;100.00;100656.28;4182555;28;20088;-76
2023/06/18 01:15:44;;;;;;;7.13;6.13;;;17.30;99.90;;;16.70;100.00;100663.06;4169527;28;20053;-76
2023/06/18 01:17:49;;;;;;;6.28;5.68;;;17.20;99.90;;;16.77;100.00;100674.56;4169637;28;20040;-76
2023/06/18 01:20:10;;;;;;;8.77;7.10;;;17.30;99.90;;;16.65;100.00;100652.19;4152774;28;20093;-76
2023/06/18 01:22:37;;;;;;;9.20;6.45;;;17.20;99.90;;;16.68;100.00;100659.78;4186840;28;20489;-76
2023/06/18 01:24:46;;;;;;;8.98;6.13;;;17.30;99.90;;;16.74;100.00;100673.13;4171045;28;20030;-76
2023/06/18 01:26:47;;;;;;;9.80;7.03;;;17.30;99.90;;;16.69;100.00;100664.91;4153573;28;20121;-76
2023/06/18 01:28:52;;;;;;;7.68;6.65;;;17.30;99.90;;;16.65;100.00;100657.50;4169357;28;20029;-76
2023/06/18 01:30:54;;;;;;;10.68;7.70;;;17.30;99.90;;;16.76;100.00;100675.59;4186905;28;20545;-75
2023/06/18 01:32:55;;;;;;;8.00;7.20;;;17.30;99.90;;;16.70;100.00;100657.72;4186844;28;20033;-76
2023/06/18 01:34:56;;;;;;;8.05;7.22;;;17.30;99.90;;;16.79;100.00;100661.88;4167610;28;20025;-76
2023/06/18 01:37:50;;;;;;;8.32;7.45;;;17.30;99.90;;;16.86;100.00;100662.72;4152910;28;20045;-75
2023/06/18 01:40:22;;;;;;;9.70;7.22;;;17.40;99.90;;;16.84;100.00;100654.13;4163348;28;20118;-76
2023/06/18 01:42:26;;;;;;;11.38;7.45;;;17.40;99.90;;;16.69;100.00;100643.59;4186823;28;20025;-76
2023/06/18 01:44:29;;;;;;;8.50;6.75;;;17.30;99.90;;;16.72;100.00;100656.53;4169271;28;20029;-76
2023/06/18 01:46:30;;;;;;;6.93;6.25;;;17.30;99.90;;;16.57;100.00;100640.69;4186831;28;20033;-75
2023/06/18 01:48:46;;;;;;;8.35;6.80;;;17.20;99.90;;;16.57;100.00;100651.34;4168922;28;20026;-76
2023/06/18 01:50:49;;;;;;;7.07;6.28;;;17.20;99.90;;;16.61;100.00;100659.75;4170480;28;20032;-76
2023/06/18 01:52:51;;;;;;;7.05;6.35;;;17.20;99.90;;;16.58;100.00;100649.47;4168845;28;20029;-75
2023/06/18 01:54:54;;;;;;;7.85;6.65;;;17.10;99.90;;;16.59;100.00;100648.47;4152609;28;20081;-76
2023/06/18 01:56:55;;;;;;;6.30;5.13;;;17.10;99.90;;;16.54;100.00;100643.75;4178135;28;20108;-76
2023/06/18 01:58:56;;;;;;;8.95;7.15;;;17.10;99.90;;;16.56;100.00;100638.22;4168734;28;20041;-76
2023/06/18 02:00:58;;;;;;;8.13;7.20;;;17.10;99.90;;;16.40;100.00;100612.69;4168643;28;20506;-76
2023/06/18 02:02:59;;;;;;;7.05;6.20;;;17.10;99.90;;;16.41;100.00;100625.00;4168467;28;20052;-76
2023/06/18 02:05:00;;;;;;;7.13;6.28;;;17.00;99.90;;;16.50;100.00;100633.63;4169580;28;20080;-76
2023/06/18 02:07:00;;;;;;;6.57;5.97;;;17.00;99.90;;;16.47;100.00;100629.53;4201630;28;20043;-76
2023/06/18 02:09:01;;;;;;;9.57;6.90;;;17.00;99.90;;;16.44;100.00;100624.59;4168454;28;20496;-76
2023/06/18 02:11:03;;;;;;;7.65;5.93;;;17.00;99.90;;;16.32;100.00;100610.19;4169910;28;20032;-76
2023/06/18 02:13:03;;;;;;;7.85;5.85;;;16.90;99.90;;;16.38;100.00;100625.38;4168657;28;20424;-76
2023/06/18 02:15:05;;;;;;;7.45;6.43;;;16.90;99.90;;;16.27;100.00;100614.47;4169803;28;20033;-76
2023/06/18 02:17:06;;;;;;;7.28;6.05;;;16.90;99.90;;;16.29;100.00;100618.56;4169624;28;20057;-76
2023/06/18 02:19:07;;;;;;;7.78;6.70;;;16.80;99.90;;;16.33;100.00;100621.66;4151923;28;20037;-75
2023/06/18 02:21:08;;;;;;;7.70;6.47;;;16.80;99.90;;;16.33;100.00;100617.19;4169918;28;20025;-76
2023/06/18 02:23:09;;;;;;;7.75;6.20;;;16.80;99.90;;;16.32;100.00;100609.38;4168382;28;20103;-76
2023/06/18 02:25:10;;;;;;;9.63;7.72;;;16.90;99.90;;;16.34;100.00;100596.69;4169505;28;20025;-76
2023/06/18 02:27:11;;;;;;;11.95;8.75;;;16.90;99.90;;;16.51;100.00;100624.66;4168513;28;20033;-76
2023/06/18 02:29:12;;;;;;;8.85;7.43;;;17.00;99.90;;;16.54;100.00;100617.13;4166121;28;20022;-76
2023/06/18 02:31:13;;;;;;;9.07;7.97;;;17.00;99.90;;;16.47;100.00;100605.56;4168359;28;20068;-76
2023/06/18 02:33:17;;;;;;;10.55;8.15;;;17.00;99.90;;;16.57;100.00;100608.72;4169327;28;20033;-76
2023/06/18 02:35:18;;;;;;;8.90;7.22;;;17.10;99.90;;;16.55;100.00;100608.09;4168197;28;20025;-76
2023/06/18 02:37:19;;;;;;;10.68;8.73;;;17.10;99.90;;;16.59;100.00;100612.00;4168429;28;20108;-76
2023/06/18 02:39:21;;;;;;;9.88;8.10;;;17.10;99.90;;;16.61;100.00;100606.47;4168071;28;20036;-76
2023/06/18 02:41:22;;;;;;;9.00;8.05;;;17.10;99.90;;;16.59;100.00;100593.38;4168009;28;20020;-76
2023/06/18 02:43:25;;;;;;;8.18;7.15;;;17.10;99.90;;;16.59;100.00;100580.06;4168226;28;20025;-76
2023/06/18 02:45:26;;;;;;;7.78;6.93;;;17.10;99.90;;;16.59;100.00;100582.72;4169200;28;20021;-76
2023/06/18 02:47:27;;;;;;;7.55;6.63;;;17.10;99.90;;;16.57;100.00;100584.75;4201066;28;20119;-75
2023/06/18 02:49:28;;;;;;;9.90;6.75;;;17.10;99.90;;;16.56;100.00;100584.94;4168877;28;20052;-76
2023/06/18 02:51:28;;;;;;;8.32;7.35;;;17.10;99.90;;;16.50;100.00;100575.88;4168074;28;20409;-76
2023/06/18 02:53:29;;;;;;;8.98;7.25;;;17.10;99.90;;;16.53;100.00;100578.16;4151478;28;20022;-76
2023/06/18 02:55:33;;;;;;;9.45;8.20;;;17.00;99.90;;;16.52;100.00;100579.16;4168213;28;20052;-76
2023/06/18 02:57:35;;;;;;;7.30;6.53;;;17.00;99.90;;;16.45;100.00;100572.19;4169183;28;20048;-76
2023/06/18 02:59:36;;;;;;;8.90;7.30;;;17.00;99.90;;;16.50;100.00;100581.22;4167917;28;20520;-76
2023/06/18 03:01:37;;;;;;;11.95;8.18;;;17.00;99.90;;;16.46;100.00;100571.13;4185544;28;20075;-76
2023/06/18 03:03:38;;;;;;;8.82;7.05;;;17.00;99.90;;;16.48;100.00;100575.28;4185140;28;20029;-76
2023/06/18 03:05:39;;;;;;;9.07;8.18;;;17.00;99.90;;;16.43;100.00;100567.03;4185560;28;20039;-76
2023/06/18 03:07:40;;;;;;;9.02;7.22;;;17.00;99.90;;;16.45;100.00;100575.66;4167671;28;20536;-76
2023/06/18 03:09:40;;;;;;;9.27;7.30;;;17.00;99.90;;;16.47;100.00;100576.28;4185544;28;20021;-76
2023/06/18 03:11:41;;;;;;;9.48;8.10;;;16.90;99.90;;;16.45;100.00;100578.31;4167711;28;20386;-76
2023/06/18 03:13:42;;;;;;;10.05;7.90;;;16.90;99.90;;;16.44;100.00;100573.19;4185302;28;20029;-76
2023/06/18 03:15:43;;;;;;;10.32;8.15;;;16.90;99.90;;;16.42;100.00;100562.75;4185313;28;20030;-76
2023/06/18 03:17:44;;;;;;;10.95;9.23;;;16.90;99.90;;;16.42;100.00;100568.06;4167840;28;20104;-76
2023/06/18 03:19:45;;;;;;;11.32;8.98;;;16.90;99.90;;;16.33;100.00;100544.47;4167241;28;20048;-76
2023/06/18 03:21:46;;;;;;;9.93;8.45;;;16.90;99.90;;;16.42;100.00;100562.75;4185315;28;20033;-76
2023/06/18 03:23:47;;;;;;;11.38;10.18;;;16.90;99.90;;;16.43;100.00;100564.38;4183919;28;20032;-76
2023/06/18 03:25:48;;;;;;;11.13;9.88;;;16.90;99.90;;;16.43;100.00;100545.72;4174840;28;20037;-76
2023/06/18 03:27:48;;;;;;;13.00;9.95;;;16.90;99.90;;;16.43;100.00;100537.75;4167736;28;20025;-76
2023/06/18 03:29:50;;;;;;;10.57;9.30;;;17.00;99.90;;;16.50;100.00;100546.59;4185330;28;20029;-76
2023/06/18 03:31:54;;;;;;;13.35;10.02;;;17.00;99.90;;;16.51;100.00;100540.25;4185265;28;20143;-76
2023/06/18 03:33:56;;;;;;;11.18;8.90;;;17.00;99.90;;;16.58;100.00;100549.09;4151032;28;20030;-76
2023/06/18 03:36:00;;;;;;;13.90;10.60;;;17.10;99.90;;;16.55;100.00;100538.84;4177895;28;20070;-76
2023/06/18 03:38:01;;;;;;;14.75;10.18;;;17.10;99.90;;;16.62;100.00;100544.22;4185379;28;20025;-76
2023/06/18 03:40:03;;;;;;;11.13;9.02;;;17.10;99.90;;;16.66;100.00;100547.28;4185341;28;20036;-75
2023/06/18 03:42:05;;;;;;;11.60;8.73;;;17.10;99.90;;;16.64;100.00;100538.66;4167628;28;20029;-76
2023/06/18 03:44:05;;;;;;;14.48;8.90;;;17.20;99.90;;;16.63;100.00;100547.69;4150876;28;20030;-76
2023/06/18 03:46:06;;;;;;;10.85;9.02;;;17.20;99.90;;;16.63;100.00;100548.53;4185112;28;20040;-76
2023/06/18 03:48:07;;;;;;;13.20;9.23;;;17.10;99.90;;;16.57;100.00;100539.50;4183719;28;20052;-76
2023/06/18 03:50:09;;;;;;;9.52;8.02;;;17.20;99.90;;;16.63;100.00;100550.34;4151039;28;20539;-76
2023/06/18 03:52:10;;;;;;;10.35;7.88;;;17.20;99.90;;;16.64;100.00;100549.31;4185060;28;20064;-76
2023/06/18 03:54:10;;;;;;;9.38;7.53;;;17.20;99.90;;;16.58;100.00;100541.13;4184875;28;20028;-76
2023/06/18 03:56:11;;;;;;;9.27;7.90;;;17.20;99.90;;;16.68;100.00;100551.41;4184890;28;20519;-76
2023/06/18 03:58:12;;;;;;;8.57;7.68;;;17.20;99.90;;;16.68;100.00;100550.56;4186572;28;20041;-76
2023/06/18 04:00:13;;;;;;;7.70;6.78;;;17.20;99.90;;;16.69;100.00;100560.22;4170891;28;20533;-76
2023/06/18 04:02:15;;;;;;;8.00;7.18;;;17.20;99.90;;;16.69;100.00;100555.72;4170676;28;20473;-76
2023/06/18 04:04:16;;;;;;;11.80;9.07;;;17.20;99.90;;;16.65;100.00;100545.66;4188113;28;20506;-76
2023/06/18 04:06:17;;;;;;;9.45;8.15;;;17.20;99.90;;;16.69;100.00;100560.22;4170690;28;20625;-76
2023/06/18 04:08:17;;;;;;;10.52;8.80;;;17.20;99.90;;;16.64;100.00;100549.31;4188298;28;20037;-76
2023/06/18 04:10:19;;;;;;;11.88;9.43;;;17.20;99.90;;;16.66;100.00;100550.78;4170556;28;20102;-76
2023/06/18 04:12:20;;;;;;;16.13;9.48;;;17.20;99.90;;;16.63;100.00;100555.69;4188061;28;20021;-76
2023/06/18 04:14:21;;;;;;;11.45;9.50;;;17.20;99.90;;;16.62;100.00;100551.38;4170386;28;20032;-76
2023/06/18 04:16:21;;;;;;;10.20;8.40;;;17.20;99.90;;;16.61;100.00;100550.53;4188151;28;20442;-76
2023/06/18 04:18:24;;;;;;;8.27;7.07;;;17.20;99.90;;;16.61;100.00;100553.22;4187877;28;20055;-75
2023/06/18 04:20:25;;;;;;;9.70;7.90;;;17.10;99.90;;;16.61;100.00;100549.75;4188001;28;20475;-76
2023/06/18 04:22:26;;;;;;;8.65;7.57;;;17.20;99.90;;;16.57;100.00;100547.47;4170337;28;20025;-76
2023/06/18 04:24:27;;;;;;;8.45;7.32;;;17.10;99.90;;;16.65;100.00;100556.28;4203379;28;20419;-76
2023/06/18 04:26:28;;;;;;;8.50;7.60;;;17.20;99.90;;;16.66;100.00;100560.63;4188118;28;20022;-76
2023/06/18 04:28:29;;;;;;;8.25;7.20;;;17.20;99.90;;;16.62;100.00;100551.38;4187874;28;20024;-76
2023/06/18 04:30:30;;;;;;;8.18;7.38;;;17.20;99.90;;;16.61;100.00;100547.88;4186805;28;20392;-76
2023/06/18 04:32:31;;;;;;;9.27;6.28;;;17.20;99.90;;;16.70;100.00;100560.00;4169266;28;20029;-75
2023/06/18 04:34:31;;;;;;;11.65;8.30;;;17.20;99.90;;;16.73;100.00;100556.09;4197320;28;20025;-76
2023/06/18 04:36:33;;;;;;;8.98;7.55;;;17.20;99.90;;;16.66;100.00;100544.63;4187933;28;20029;-76
2023/06/18 04:38:36;;;;;;;8.02;7.20;;;17.20;99.90;;;16.68;100.00;100550.56;4187895;28;20032;-76
2023/06/18 04:40:37;;;;;;;7.95;6.55;;;17.20;99.90;;;16.65;100.00;100550.97;4170371;28;20396;-76
2023/06/18 04:42:38;;;;;;;8.18;6.43;;;17.20;99.90;;;16.69;100.00;100557.56;4169984;28;20037;-76
2023/06/18 04:44:39;;;;;;;7.78;6.05;;;17.20;99.90;;;16.68;100.00;100547.91;4187812;28;20506;-76
2023/06/18 04:46:41;;;;;;;6.05;5.50;;;17.20;99.90;;;16.70;100.00;100554.66;4187829;28;20028;-76
2023/06/18 04:48:42;;;;;;;7.68;6.43;;;17.20;99.90;;;16.74;100.00;100565.75;4187495;28;20023;-76
2023/06/18 04:50:43;;;;;;;9.57;6.80;;;17.20;99.90;;;16.72;100.00;100557.16;4169930;28;20034;-75
2023/06/18 04:52:44;;;;;;;7.80;6.80;;;17.20;99.90;;;16.79;100.00;100568.63;4187451;28;20032;-76
2023/06/18 04:54:45;;;;;;;6.32;5.68;;;17.20;99.90;;;16.82;100.00;100568.22;4187594;28;20041;-75
2023/06/18 04:56:46;;;;;;;7.90;6.32;;;17.30;99.90;;;16.82;100.00;100562.91;4187219;28;20049;-76
2023/06/18 04:58:47;;;;;;;6.68;5.90;;;17.30;99.90;;;16.78;100.00;100556.34;4169659;28;20041;-76
2023/06/18 05:00:48;;;;;;;7.50;6.65;;;17.30;99.90;;;16.83;100.00;100560.06;4187481;28;20021;-76
2023/06/18 05:02:49;;;;;;;6.30;5.65;;;17.30;99.90;;;16.87;100.00;100569.28;4169740;28;20029;-76
2023/06/18 05:04:50;;;;;;;8.35;6.13;;;17.30;99.90;;;16.89;100.00;100555.75;4187248;28;20365;-76
2023/06/18 05:06:51;;;;;;;8.00;6.18;;;17.30;99.90;;;16.86;100.00;100562.31;4153287;28;20036;-76
2023/06/18 05:08:52;;;;;;;7.18;6.13;;;17.40;99.90;;;16.87;100.00;100569.28;4169328;28;20029;-76
2023/06/18 05:10:52;;;;;;;7.63;6.82;;;17.40;99.90;;;16.91;100.00;100572.34;4153345;28;20587;-76
2023/06/18 05:12:53;;;;;;;8.68;7.07;;;17.40;99.90;;;16.96;100.00;100569.94;4169123;28;20026;-76
2023/06/18 05:14:54;;;;;;;7.05;5.68;;;17.40;99.90;;;16.98;100.00;100566.03;4187223;28;20051;-76
2023/06/18 05:16:56;;;;;;;6.55;5.53;;;17.40;99.90;;;16.97;100.00;100550.22;4155733;28;20456;-76
2023/06/18 05:18:57;;;;;;;7.38;5.72;;;17.50;99.90;;;17.01;100.00;100557.63;4186875;28;20509;-76
2023/06/18 05:20:58;;;;;;;7.28;5.38;;;17.50;99.90;;;17.07;100.00;100556.00;4169684;28;20051;-75
2023/06/18 05:22:59;;;;;;;6.72;5.03;;;17.50;99.90;;;17.11;100.00;100558.03;4187102;28;20032;-76
2023/06/18 05:25:01;;;;;;;7.10;5.45;;;17.60;99.90;;;17.16;100.00;100557.44;4202510;28;20032;-76
2023/06/18 05:27:01;;;;;;;6.28;5.60;;;17.60;99.90;;;17.18;100.00;100558.06;4186871;28;20183;-76
2023/06/18 05:29:02;;;;;;;6.03;5.43;;;17.60;99.90;;;17.16;100.00;100549.47;4185842;28;20045;-75
2023/06/18 05:31:03;;;;;;;8.20;6.68;;;17.60;99.90;;;17.15;100.00;100545.97;4187024;28;20033;-76
2023/06/18 05:33:04;;;;;;;6.28;5.68;;;17.60;99.90;;;17.06;100.00;100536.53;4169129;28;20509;-76
2023/06/18 05:35:05;;;;;;;8.57;6.80;;;17.60;99.90;;;17.11;100.00;100562.59;4186631;28;20025;-76
2023/06/18 05:37:06;;;;;;;9.60;7.47;;;17.60;99.90;;;17.01;100.00;100557.63;4169210;28;20021;-76
2023/06/18 05:39:07;;;;;;;9.68;7.72;;;17.60;99.90;;;17.12;100.00;100580.19;4187046;28;20071;-76
2023/06/18 05:41:08;;;;;;;9.35;7.63;;;17.60;99.90;;;17.07;100.00;100562.16;4186806;28;20044;-76
2023/06/18 05:43:09;;;;;;;7.50;6.75;;;17.60;99.90;;;17.10;100.00;100572.41;4186672;28;20025;-76
2023/06/18 05:45:10;;;;;;;15.80;7.72;;;17.60;99.90;;;17.08;100.00;100565.66;4186838;28;20021;-76
2023/06/18 05:47:11;;;;;;;10.02;7.90;;;17.60;99.90;;;16.99;100.00;100549.00;4186777;28;20064;-76
2023/06/18 05:49:12;;;;;;;9.95;7.38;;;17.60;99.90;;;17.02;100.00;100547.81;4168728;28;20033;-76
2023/06/18 05:51:13;;;;;;;14.95;9.00;;;17.60;99.90;;;17.02;100.00;100542.47;4186782;28;20029;-76
2023/06/18 05:53:14;;;;;;;16.88;10.27;;;17.50;99.90;;;17.01;100.00;100548.81;4186630;28;20021;-77
2023/06/18 05:55:15;;;;;;;14.23;9.50;;;17.50;99.90;;;16.96;100.00;100549.44;4186673;28;20032;-77
2023/06/18 05:57:16;;;;;;;12.38;9.38;;;17.50;99.90;;;16.87;100.00;100541.81;4186648;28;20017;-77
2023/06/18 05:59:17;;;;;;;14.32;10.25;;;17.40;99.90;;;16.87;100.00;100565.81;4168608;28;20064;-76
2023/06/18 06:01:18;;;;;;;16.20;10.73;;;17.40;99.90;;;16.84;100.00;100571.53;4186614;28;20025;-76
2023/06/18 06:03:19;;;;;;;17.92;11.15;;;17.40;99.90;;;16.79;100.00;100574.78;4186215;28;20025;-76
2023/06/18 06:05:20;;;;;;;12.95;9.82;;;17.30;99.90;;;16.81;100.00;100588.75;4186419;28;20036;-76
2023/06/18 06:07:21;;;;;;;16.75;11.38;;;17.40;99.90;;;16.81;100.00;100594.06;4186231;28;20032;-76
2023/06/18 06:09:22;;;;;;;14.20;10.35;;;17.40;99.90;;;16.87;100.00;100601.28;4168783;28;20069;-76
2023/06/18 06:11:23;;;;;;;11.98;10.57;;;17.40;99.90;;;17.01;100.00;100604.78;4168745;28;20025;-76
2023/06/18 06:13:24;;;;;;;13.75;10.35;;;17.50;99.90;;;17.10;100.00;100604.41;4186203;28;20029;-76
2023/06/18 06:15:25;;;;;;;15.27;11.45;;;17.50;99.90;;;17.21;100.00;100594.16;4201560;28;20444;-76
2023/06/18 06:17:26;;;;;;;16.40;12.20;;;17.70;99.90;;;17.47;100.00;100608.34;4186385;28;20071;-76
2023/06/18 06:19:27;;;;;;;11.88;10.02;;;17.80;99.90;;;17.61;100.00;100618.03;4186305;28;20053;-77
2023/06/18 06:21:28;;;;;;;12.57;9.98;;;17.90;99.90;;;17.58;100.00;100597.13;4168081;28;20036;-76
2023/06/18 06:23:33;;;;;;;13.63;10.20;;;18.00;99.90;;;17.74;100.00;100605.72;4185897;28;20074;-76
2023/06/18 06:25:33;;;;;;;12.73;9.82;;;18.10;99.90;;;17.68;100.00;100602.84;4186625;28;20427;-76
2023/06/18 06:27:35;;;;;;;12.88;10.60;;;18.10;99.90;;;17.64;100.00;100598.97;4168709;28;20033;-76
2023/06/18 06:29:36;;;;;;;18.25;11.48;;;18.10;99.90;;;17.62;100.00;100608.19;4186476;28;20076;-76
2023/06/18 06:31:37;;;;;;;13.68;10.23;;;18.00;99.90;;;17.47;100.00;100604.88;4184708;28;20029;-76
2023/06/18 06:33:37;;;;;;;12.15;9.82;;;18.00;99.90;;;17.47;100.00;100613.66;4184316;28;20036;-76
2023/06/18 06:35:38;;;;;;;11.48;9.68;;;18.00;99.90;;;17.50;100.00;100631.94;4186137;28;20028;-76
2023/06/18 06:37:39;;;;;;;16.35;10.80;;;17.90;99.90;;;17.44;100.00;100635.41;4186158;28;20040;-76
2023/06/18 06:39:40;;;;;;;12.80;10.32;;;17.90;99.90;;;17.36;100.00;100629.44;4185922;28;20511;-76
2023/06/18 06:41:41;;;;;;;13.10;8.93;;;17.90;99.90;;;17.36;100.00;100618.78;4168246;28;20129;-76
2023/06/18 06:43:42;;;;;;;15.15;10.40;;;17.90;99.90;;;17.36;100.00;100614.28;4186070;28;20047;-76
2023/06/18 06:45:42;;;;;;;14.38;11.13;;;17.80;99.90;;;17.31;100.00;100602.59;4168183;28;20033;-76
2023/06/18 06:47:43;;;;;;;12.25;8.93;;;17.80;99.90;;;17.31;100.00;100616.75;4185857;28;20021;-76
2023/06/18 06:49:47;;;;;;;15.45;12.38;;;17.80;99.90;;;17.30;100.00;100620.41;4185433;28;20377;-77
2023/06/18 06:51:48;;;;;;;13.30;10.35;;;17.80;99.90;;;17.17;100.00;100603.59;4185892;28;20095;-76
2023/06/18 06:53:49;;;;;;;15.80;12.02;;;17.80;99.90;;;17.28;100.00;100625.16;4185621;28;20033;-77
2023/06/18 06:55:50;;;;;;;13.75;11.50;;;17.80;99.90;;;17.26;100.00;100616.53;4186004;28;20028;-76
2023/06/18 06:57:51;;;;;;;16.40;11.95;;;17.80;99.90;;;17.28;100.00;100617.16;4151264;28;20033;-77
2023/06/18 06:59:51;;;;;;;12.52;10.52;;;17.80;99.90;;;17.30;100.00;100611.59;4168050;28;20041;-77
2023/06/18 07:01:52;;;;;;;14.98;13.02;;;17.80;99.90;;;17.27;100.00;100602.16;4169211;28;20022;-76
2023/06/18 07:03:53;;;;;;;17.60;12.15;;;17.80;99.90;;;17.23;100.00;100592.13;4167793;28;20025;-76
2023/06/18 07:05:54;;;;;;;13.88;10.18;;;17.80;99.90;;;17.25;100.00;100601.56;4200575;28;20062;-76
2023/06/18 07:07:55;;;;;;;12.45;10.18;;;17.80;99.90;;;17.27;100.00;100602.16;4169068;28;20489;-76
2023/06/18 07:09:56;;;;;;;13.20;9.77;;;17.80;99.90;;;17.26;100.00;100586.38;4169047;28;20025;-77
2023/06/18 07:11:57;;;;;;;13.32;10.18;;;17.80;99.90;;;17.20;100.00;100568.53;4169029;28;20036;-76
2023/06/18 07:13:59;;;;;;;12.70;10.73;;;17.80;99.90;;;17.25;100.00;100574.06;4167522;28;20025;-76
2023/06/18 07:16:00;;;;;;;12.95;9.90;;;17.80;99.90;;;17.25;100.00;100577.56;4168527;28;20017;-76
2023/06/18 07:18:01;;;;;;;11.82;9.10;;;17.80;99.90;;;17.26;100.00;100573.06;4168908;28;20075;-76
2023/06/18 07:20:02;;;;;;;12.25;9.48;;;17.80;99.90;;;17.36;100.00;100590.28;4167408;28;20463;-76
2023/06/18 07:22:03;;;;;;;13.07;10.57;;;17.80;99.90;;;17.32;100.00;100583.72;4168286;28;20017;-76
2023/06/18 07:24:05;;;;;;;13.90;11.00;;;17.80;99.90;;;17.18;100.00;100571.38;4151213;28;20088;-77
2023/06/18 07:26:06;;;;;;;12.65;10.77;;;17.80;99.90;;;17.23;100.00;100595.63;4167989;28;20521;-76
2023/06/18 07:28:07;;;;;;;14.80;12.65;;;17.80;99.90;;;17.21;100.00;100610.97;4184126;28;20029;-76
2023/06/18 07:30:08;;;;;;;14.43;12.00;;;17.70;99.90;;;17.18;100.00;100619.38;4151066;28;20040;-76
2023/06/18 07:32:09;;;;;;;15.60;10.20;;;17.70;99.90;;;17.14;100.00;100620.81;4167060;28;20481;-76
2023/06/18 07:34:10;;;;;;;13.02;10.73;;;17.70;99.90;;;17.11;100.00;100618.56;4170843;28;20026;-76
2023/06/18 07:36:11;;;;;;;11.95;9.65;;;17.60;99.90;;;16.97;100.00;100595.53;4168721;28;20028;-76
2023/06/18 07:38:12;;;;;;;10.15;8.70;;;17.60;99.90;;;17.03;100.00;100610.72;4167585;28;20032;-77
2023/06/18 07:40:13;;;;;;;11.40;8.75;;;17.60;99.90;;;17.01;100.00;100605.59;4167780;28;20026;-76
2023/06/18 07:42:13;;;;;;;14.45;11.48;;;17.60;99.90;;;17.01;100.00;100592.28;4168698;28;20032;-77
2023/06/18 07:44:14;;;;;;;11.05;9.75;;;17.60;99.90;;;17.00;100.00;100595.13;4168621;28;20154;-76
2023/06/18 07:46:15;;;;;;;10.60;8.93;;;17.60;99.90;;;16.98;100.00;100594.53;4167341;28;20057;-76
2023/06/18 07:48:17;;;;;;;15.95;11.32;;;17.60;99.90;;;16.97;100.00;100595.53;4167391;28;20068;-76
2023/06/18 07:50:18;;;;;;;14.10;10.73;;;17.60;99.90;;;16.98;100.00;100586.53;4168611;28;20083;-76
2023/06/18 07:52:19;;;;;;;11.82;10.55;;;17.50;99.90;;;16.96;100.00;100569.94;4168603;28;20033;-76
2023/06/18 07:54:21;;;;;;;12.85;10.82;;;17.50;99.90;;;16.98;100.00;100562.53;4168307;28;20026;-76
2023/06/18 07:56:24;;;;;;;11.75;10.25;;;17.50;99.90;;;17.03;100.00;100565.41;4167379;28;20029;-76
2023/06/18 07:58:25;;;;;;;12.80;11.52;;;17.50;99.90;;;17.03;100.00;100554.75;4183801;28;20049;-76
2023/06/18 08:00:26;;;;;;;12.95;10.50;;;17.60;99.90;;;17.07;100.00;100524.03;4167239;28;20607;-76
2023/06/18 08:02:26;;;;;;;12.38;10.85;;;17.60;99.90;;;17.06;100.00;100493.06;4167111;28;20021;-76
2023/06/18 08:04:27;;;;;;;15.25;12.45;;;17.70;99.90;;;17.24;100.00;100503.94;4167109;28;20025;-76
2023/06/18 08:06:28;;;;;;;13.95;10.95;;;17.80;99.90;;;17.33;100.00;100480.53;4168509;28;20033;-76
2023/06/18 08:08:29;;;;;;;14.27;11.70;;;17.80;99.90;;;17.56;100.00;100478.31;4167334;28;20567;-76
2023/06/18 08:10:30;;;;;;;13.45;12.05;;;18.00;99.90;;;17.61;100.00;100474.00;4167053;28;20402;-76
2023/06/18 08:12:31;;;;;;;13.88;12.20;;;18.20;99.90;;;17.68;100.00;100506.00;4183803;28;20432;-77
2023/06/18 08:14:32;;;;;;;14.65;11.90;;;18.30;99.90;;;17.98;100.00;100565.06;4168429;28;20025;-76
2023/06/18 08:16:33;;;;;;;13.05;11.40;;;18.50;99.90;;;18.09;100.00;100564.41;4167330;28;20025;-76
2023/06/18 08:18:34;;;;;;;15.73;12.45;;;18.70;99.90;;;18.27;100.00;100564.56;4168078;28;20026;-76